createdAt,value
2023-03-16T00:04:12.175Z,6.20
2023-03-16T00:09:14.997Z,6.10
2023-03-16T00:14:19.077Z,5.88
2023-03-16T00:19:22.861Z,5.78
2023-03-16T00:24:25.694Z,5.18
2023-03-16T00:29:29.795Z,4.57
2023-03-16T00:34:34.608Z,4.90
2023-03-16T00:39:37.346Z,5.10
2023-03-16T00:44:42.397Z,5.45
2023-03-16T00:49:45.557Z,5.72
2023-03-16T00:54:49.062Z,5.80
2023-03-16T00:59:53.618Z,4.85
2023-03-16T01:04:57.037Z,4.70
2023-03-16T01:10:01.656Z,5.43
2023-03-16T01:15:07.228Z,4.60
2023-03-16T01:20:14.386Z,4.65
2023-03-16T01:25:18.319Z,5.03
2023-03-16T01:30:22.483Z,4.97
2023-03-16T01:35:25.592Z,4.93
2023-03-16T01:40:28.846Z,4.30
2023-03-16T01:46:14.195Z,4.15
2023-03-16T01:51:24.220Z,4.55
2023-03-16T01:56:30.849Z,4.20
2023-03-16T02:01:36.089Z,4.22
2023-03-16T02:06:39.515Z,3.95
2023-03-16T02:11:42.920Z,4.15
2023-03-16T02:16:50.665Z,3.80
2023-03-16T02:21:59.666Z,3.67
2023-03-16T02:27:05.535Z,3.88
2023-03-16T02:32:13.943Z,4.07
2023-03-16T02:37:17.049Z,3.80
2023-03-16T02:42:22.826Z,3.80
2023-03-16T02:47:35.063Z,4.15
2023-03-16T02:52:39.243Z,4.15
2023-03-16T02:57:42.264Z,4.38
2023-03-16T03:02:52.464Z,4.68
2023-03-16T03:07:55.463Z,5.20
2023-03-16T03:12:58.775Z,4.60
2023-03-16T03:18:04.027Z,4.93
2023-03-16T03:23:08.016Z,5.63
2023-03-16T03:28:11.415Z,4.65
2023-03-16T03:33:15.738Z,5.07
2023-03-16T03:38:18.593Z,5.68
2023-03-16T03:43:22.215Z,5.25
2023-03-16T03:48:28.534Z,5.05
2023-03-16T03:53:33.076Z,5.70
2023-03-16T03:58:56.067Z,5.50
2023-03-16T04:04:18.873Z,5.88
2023-03-16T04:09:21.696Z,5.38
2023-03-16T04:14:24.954Z,7.03
2023-03-16T04:19:29.382Z,5.32
2023-03-16T04:24:34.482Z,5.60
2023-03-16T04:29:38.715Z,5.10
2023-03-16T04:34:43.751Z,4.97
2023-03-16T04:39:48.888Z,4.78
2023-03-16T04:44:51.836Z,4.65
2023-03-16T04:49:58.668Z,5.50
2023-03-16T04:55:01.679Z,6.00
2023-03-16T05:00:11.705Z,5.78
2023-03-16T05:05:23.124Z,5.53
2023-03-16T05:10:26.519Z,5.35
2023-03-16T05:15:29.507Z,5.35
2023-03-16T05:20:42.167Z,4.63
2023-03-16T05:25:47.112Z,4.90
2023-03-16T05:30:53.030Z,5.18
2023-03-16T05:36:03.021Z,6.30
2023-03-16T05:41:06.847Z,5.40
2023-03-16T05:46:30.156Z,6.32
2023-03-16T05:51:35.379Z,5.75
2023-03-16T05:56:40.914Z,6.47
2023-03-16T06:01:43.802Z,5.95
2023-03-16T06:06:48.942Z,5.68
2023-03-16T06:12:01.440Z,5.63
2023-03-16T06:17:05.548Z,5.25
2023-03-16T06:22:10.968Z,5.82
2023-03-16T06:27:14.949Z,5.53
2023-03-16T06:32:33.614Z,5.20
2023-03-16T06:37:38.059Z,6.05
2023-03-16T06:42:55.142Z,6.15
2023-03-16T06:47:58.075Z,7.20
2023-03-16T06:53:02.656Z,6.03
2023-03-16T06:58:07.948Z,5.68
2023-03-16T07:03:10.980Z,6.10
2023-03-16T07:08:18.176Z,5.47
2023-03-16T07:13:21.188Z,5.82
2023-03-16T07:18:25.963Z,4.85
2023-03-16T07:23:30.820Z,5.43
2023-03-16T07:28:39.462Z,5.10
2023-03-16T07:33:43.133Z,4.60
2023-03-16T07:38:51.688Z,3.53
2023-03-16T07:43:54.875Z,3.50
2023-03-16T07:49:00.273Z,4.25
2023-03-16T07:54:05.148Z,3.92
2023-03-16T07:59:10.656Z,3.42
2023-03-16T08:04:13.561Z,3.53
2023-03-16T08:09:17.866Z,3.53
2023-03-16T08:14:20.851Z,3.25
2023-03-16T08:19:42.664Z,2.93
2023-03-16T08:24:48.997Z,3.40
2023-03-16T08:29:53.869Z,3.42
2023-03-16T08:35:00.470Z,2.78
2023-03-16T08:40:06.391Z,2.95
2023-03-16T08:45:13.778Z,2.53
2023-03-16T08:50:19.617Z,2.60
2023-03-16T08:55:24.475Z,2.30
2023-03-16T09:00:28.733Z,2.92
2023-03-16T09:05:32.646Z,2.63
2023-03-16T09:10:38.031Z,2.10
2023-03-16T09:22:52.044Z,2.28
2023-03-16T09:27:56.185Z,3.03
2023-03-16T09:32:59.477Z,2.92
2023-03-16T09:38:06.874Z,2.75
2023-03-16T09:43:31.379Z,2.15
2023-03-16T09:48:36.800Z,2.88
2023-03-16T09:53:40.573Z,3.17
2023-03-16T09:58:45.689Z,2.78
2023-03-16T10:04:06.504Z,2.80
2023-03-16T10:09:25.242Z,2.65
2023-03-16T10:14:39.008Z,3.05
2023-03-16T10:19:47.986Z,2.85
2023-03-16T10:25:02.404Z,2.53
2023-03-16T10:30:19.659Z,3.55
2023-03-16T10:35:32.443Z,2.40
2023-03-16T10:45:44.257Z,2.40
2023-03-16T10:50:51.917Z,2.63
2023-03-16T10:55:59.805Z,2.53
2023-03-16T11:01:03.931Z,2.38
2023-03-16T11:06:08.911Z,2.33
2023-03-16T11:11:15.633Z,2.60
2023-03-16T11:16:31.964Z,2.65
2023-03-16T11:21:44.766Z,2.13
2023-03-16T11:32:01.015Z,2.47
2023-03-16T11:37:14.064Z,2.30
2023-03-16T11:42:29.799Z,2.33
2023-03-16T11:48:02.335Z,2.80
2023-03-16T11:53:14.366Z,2.30
2023-03-16T11:58:31.574Z,3.20
2023-03-16T12:03:57.026Z,2.50
2023-03-16T12:09:15.441Z,2.70
2023-03-16T12:14:24.302Z,4.55
2023-03-16T12:19:42.516Z,2.28
2023-03-16T12:24:47.029Z,3.20
2023-03-16T12:30:01.724Z,2.75
2023-03-16T12:35:19.463Z,2.50
2023-03-16T12:40:32.793Z,2.10
2023-03-16T12:45:41.897Z,2.63
2023-03-16T12:50:52.051Z,2.65
2023-03-16T12:55:56.524Z,1.98
2023-03-16T13:01:01.007Z,2.45
2023-03-16T13:06:05.624Z,2.10
2023-03-16T13:11:10.346Z,2.25
2023-03-16T13:16:27.120Z,1.85
2023-03-16T13:21:39.435Z,2.03
2023-03-16T13:26:47.372Z,2.08
2023-03-16T13:31:51.162Z,2.30
2023-03-16T13:36:57.980Z,2.13
2023-03-16T13:42:04.689Z,2.30
2023-03-16T13:47:08.516Z,1.90
2023-03-16T13:52:20.784Z,2.15
2023-03-16T13:57:26.885Z,1.90
2023-03-16T14:02:30.132Z,1.92
2023-03-16T14:07:38.734Z,1.50
2023-03-16T14:12:51.702Z,1.65
2023-03-16T14:18:16.370Z,1.65
2023-03-16T14:23:24.475Z,1.30
2023-03-16T14:28:32.367Z,1.77
2023-03-16T14:33:37.693Z,1.30
2023-03-16T14:38:43.679Z,1.20
2023-03-16T14:43:49.244Z,1.70
2023-03-16T14:48:53.404Z,1.10
2023-03-16T14:53:57.554Z,1.40
2023-03-16T14:59:00.540Z,1.20
2023-03-16T15:04:03.740Z,1.40
2023-03-16T15:09:08.737Z,2.25
2023-03-16T15:14:35.406Z,2.03
2023-03-16T15:19:38.121Z,2.22
2023-03-16T15:29:45.353Z,2.00
2023-03-16T15:34:48.126Z,2.15
2023-03-16T15:39:52.346Z,1.60
2023-03-16T15:44:55.289Z,1.33
2023-03-16T15:49:58.064Z,2.50
2023-03-16T15:55:07.678Z,1.70
2023-03-16T16:00:27.177Z,2.15
2023-03-16T16:05:30.996Z,2.33
2023-03-16T16:10:35.682Z,2.35
2023-03-16T16:15:38.456Z,2.80
2023-03-16T16:20:41.282Z,1.70
2023-03-16T16:25:46.491Z,1.60
2023-03-16T16:30:49.894Z,1.38
2023-03-16T16:35:52.932Z,1.30
2023-03-16T16:41:01.345Z,1.75
2023-03-16T16:46:07.531Z,1.50
2023-03-16T16:51:18.151Z,1.65
2023-03-16T16:56:28.604Z,1.60
2023-03-16T17:01:34.536Z,2.00
2023-03-16T17:06:37.764Z,1.63
2023-03-16T17:11:43.386Z,2.03
2023-03-16T17:16:48.441Z,1.80
2023-03-16T17:21:52.184Z,2.97
2023-03-16T17:26:58.741Z,2.53
2023-03-16T17:32:03.571Z,2.22
2023-03-16T17:37:08.477Z,2.40
2023-03-16T17:42:15.858Z,1.80
2023-03-16T17:47:21.367Z,2.63
2023-03-16T17:52:26.853Z,2.40
2023-03-16T17:57:33.220Z,2.85
2023-03-16T18:02:41.130Z,2.30
2023-03-16T18:07:43.912Z,2.13
2023-03-16T18:12:50.642Z,2.08
2023-03-16T18:17:53.802Z,2.22
2023-03-16T18:22:57.107Z,5.22
2023-03-16T18:28:02.621Z,2.47
2023-03-16T18:33:07.766Z,2.30
2023-03-16T18:38:18.959Z,2.92
2023-03-16T18:43:24.521Z,3.50
2023-03-16T18:48:31.583Z,3.83
2023-03-16T18:53:34.373Z,3.20
2023-03-16T18:58:38.481Z,4.15
2023-03-16T19:03:45.023Z,4.20
2023-03-16T19:08:47.804Z,5.32
2023-03-16T19:13:54.666Z,4.47
2023-03-16T19:18:57.574Z,3.47
2023-03-16T19:24:04.121Z,5.32
2023-03-16T19:29:11.293Z,4.68
2023-03-16T19:34:17.635Z,4.35
2023-03-16T19:39:21.295Z,4.03
2023-03-16T19:44:28.277Z,3.95
2023-03-16T19:49:31.698Z,4.00
2023-03-16T19:54:35.049Z,5.47
2023-03-16T19:59:39.389Z,4.35
2023-03-16T20:04:42.289Z,4.70
2023-03-16T20:09:45.276Z,4.28
2023-03-16T20:14:51.203Z,4.43
2023-03-16T20:19:54.102Z,4.82
2023-03-16T20:24:57.967Z,2.95
2023-03-16T20:30:02.818Z,4.13
2023-03-16T20:35:14.594Z,4.30
2023-03-16T20:40:18.584Z,3.70
2023-03-16T20:45:25.739Z,3.47
2023-03-16T20:50:31.103Z,3.75
2023-03-16T20:55:34.141Z,3.72
2023-03-16T21:00:39.928Z,3.67
2023-03-16T21:05:42.705Z,3.85
2023-03-16T21:10:47.808Z,3.55
2023-03-16T21:15:53.022Z,3.50
2023-03-16T21:20:56.867Z,4.00
2023-03-16T21:26:03.689Z,3.60
2023-03-16T21:31:08.401Z,4.53
2023-03-16T21:36:15.769Z,4.15
2023-03-16T21:41:18.671Z,4.40
2023-03-16T21:46:24.624Z,3.67
2023-03-16T21:51:31.492Z,3.58
2023-03-16T21:56:34.288Z,3.53
2023-03-16T22:01:54.406Z,3.05
2023-03-16T22:07:01.372Z,3.88
2023-03-16T22:12:04.722Z,3.72
2023-03-16T22:17:20.160Z,3.72
2023-03-16T22:22:22.924Z,3.17
2023-03-16T22:27:26.306Z,3.60
2023-03-16T22:32:30.519Z,3.42
2023-03-16T22:37:33.829Z,3.40
2023-03-16T22:42:38.944Z,3.55
2023-03-16T22:47:43.106Z,3.67
2023-03-16T22:52:48.377Z,3.88
2023-03-16T22:57:54.688Z,3.70
2023-03-16T23:02:59.223Z,3.75
2023-03-16T23:08:03.489Z,3.72
2023-03-16T23:13:15.285Z,3.50
2023-03-16T23:18:21.957Z,3.77
2023-03-16T23:23:24.888Z,3.92
2023-03-16T23:28:27.780Z,2.88
2023-03-16T23:33:32.019Z,3.75
2023-03-16T23:38:34.807Z,3.72
2023-03-16T23:43:37.656Z,3.10
2023-03-16T23:48:45.867Z,3.05
2023-03-16T23:53:48.827Z,3.72
2023-03-16T23:58:52.054Z,4.15
